sensor_id;sensor_type;location;lat;lon;timestamp;pressure;altitude;pressure_sealevel;temperature;humidity
37291;BME280;23175;-33.706;151.094;2023-03-14T00:01:36;100044.93;;;23.11;50.02
37291;BME280;23175;-33.706;151.094;2023-03-14T00:04:06;100047.26;;;23.43;49.86
37291;BME280;23175;-33.706;151.094;2023-03-14T00:06:37;100044.19;;;22.73;50.33
37291;BME280;23175;-33.706;151.094;2023-03-14T00:09:07;100041.82;;;23.04;49.78
37291;BME280;23175;-33.706;151.094;2023-03-14T00:11:37;100041.71;;;22.83;49.38
37291;BME280;23175;-33.706;151.094;2023-03-14T00:14:08;100036.51;;;22.15;50.69
37291;BME280;23175;-33.706;151.094;2023-03-14T00:16:38;100034.77;;;21.27;52.54
37291;BME280;23175;-33.706;151.094;2023-03-14T00:19:08;100040.73;;;18.79;59.32
37291;BME280;23175;-33.706;151.094;2023-03-14T00:21:38;100034.57;;;20.64;54.02
37291;BME280;23175;-33.706;151.094;2023-03-14T00:24:09;100029.51;;;21.90;52.31
37291;BME280;23175;-33.706;151.094;2023-03-14T00:26:40;100029.71;;;19.95;56.79
37291;BME280;23175;-33.706;151.094;2023-03-14T00:29:10;100029.94;;;20.98;56.19
37291;BME280;23175;-33.706;151.094;2023-03-14T00:31:40;100033.11;;;18.48;60.15
37291;BME280;23175;-33.706;151.094;2023-03-14T00:34:11;100029.64;;;20.31;55.95
37291;BME280;23175;-33.706;151.094;2023-03-14T00:36:42;100036.50;;;18.44;60.42
37291;BME280;23175;-33.706;151.094;2023-03-14T00:39:11;100035.01;;;16.78;64.91
37291;BME280;23175;-33.706;151.094;2023-03-14T00:41:42;100032.44;;;16.31;67.67
37291;BME280;23175;-33.706;151.094;2023-03-14T00:44:13;100027.31;;;17.93;64.17
37291;BME280;23175;-33.706;151.094;2023-03-14T00:46:43;100028.85;;;17.78;64.06
37291;BME280;23175;-33.706;151.094;2023-03-14T00:49:13;100022.25;;;16.87;66.20
37291;BME280;23175;-33.706;151.094;2023-03-14T00:51:43;100024.37;;;17.01;66.95
37291;BME280;23175;-33.706;151.094;2023-03-14T00:54:14;100026.50;;;16.43;67.29
37291;BME280;23175;-33.706;151.094;2023-03-14T00:56:45;100028.10;;;17.69;63.56
37291;BME280;23175;-33.706;151.094;2023-03-14T00:59:16;100023.85;;;18.92;62.67
37291;BME280;23175;-33.706;151.094;2023-03-14T01:01:46;100017.60;;;17.46;66.63
37291;BME280;23175;-33.706;151.094;2023-03-14T01:04:16;100014.23;;;18.45;63.32
37291;BME280;23175;-33.706;151.094;2023-03-14T01:06:47;100014.13;;;18.64;63.60
37291;BME280;23175;-33.706;151.094;2023-03-14T01:09:17;100016.16;;;19.52;62.42
37291;BME280;23175;-33.706;151.094;2023-03-14T01:11:47;100013.22;;;16.86;68.75
37291;BME280;23175;-33.706;151.094;2023-03-14T01:14:18;100009.68;;;18.77;64.23
37291;BME280;23175;-33.706;151.094;2023-03-14T01:16:48;100017.04;;;18.84;64.41
37291;BME280;23175;-33.706;151.094;2023-03-14T01:19:19;100018.55;;;19.36;63.52
37291;BME280;23175;-33.706;151.094;2023-03-14T01:21:50;100017.40;;;17.67;64.20
37291;BME280;23175;-33.706;151.094;2023-03-14T01:24:19;100017.48;;;19.00;63.38
37291;BME280;23175;-33.706;151.094;2023-03-14T01:26:50;100006.73;;;18.26;63.71
37291;BME280;23175;-33.706;151.094;2023-03-14T01:29:20;99997.99;;;20.33;60.55
37291;BME280;23175;-33.706;151.094;2023-03-14T01:31:50;99989.79;;;19.13;61.52
37291;BME280;23175;-33.706;151.094;2023-03-14T01:34:21;99990.19;;;21.88;56.89
37291;BME280;23175;-33.706;151.094;2023-03-14T01:36:52;99989.38;;;19.90;60.44
37291;BME280;23175;-33.706;151.094;2023-03-14T01:39:22;99985.54;;;19.19;62.10
37291;BME280;23175;-33.706;151.094;2023-03-14T01:41:53;99981.19;;;21.60;57.39
37291;BME280;23175;-33.706;151.094;2023-03-14T01:44:24;99981.86;;;19.80;61.11
37291;BME280;23175;-33.706;151.094;2023-03-14T01:46:54;99975.07;;;21.46;57.10
37291;BME280;23175;-33.706;151.094;2023-03-14T01:49:26;99978.89;;;18.87;63.19
37291;BME280;23175;-33.706;151.094;2023-03-14T01:52:00;99975.38;;;16.52;67.81
37291;BME280;23175;-33.706;151.094;2023-03-14T01:54:34;99975.81;;;19.09;61.81
37291;BME280;23175;-33.706;151.094;2023-03-14T01:57:09;99974.86;;;16.46;68.36
37291;BME280;23175;-33.706;151.094;2023-03-14T01:59:46;99974.02;;;19.20;64.29
37291;BME280;23175;-33.706;151.094;2023-03-14T02:02:18;99970.83;;;19.51;62.11
37291;BME280;23175;-33.706;151.094;2023-03-14T02:04:49;99968.96;;;15.97;70.08
37291;BME280;23175;-33.706;151.094;2023-03-14T02:07:21;99963.02;;;17.80;66.59
37291;BME280;23175;-33.706;151.094;2023-03-14T02:09:52;99958.40;;;19.90;62.51
37291;BME280;23175;-33.706;151.094;2023-03-14T02:12:25;99959.45;;;19.78;61.84
37291;BME280;23175;-33.706;151.094;2023-03-14T02:14:56;99956.15;;;21.39;58.30
37291;BME280;23175;-33.706;151.094;2023-03-14T02:17:26;99951.97;;;20.57;59.01
37291;BME280;23175;-33.706;151.094;2023-03-14T02:20:10;99946.26;;;20.94;59.13
37291;BME280;23175;-33.706;151.094;2023-03-14T02:22:46;99939.99;;;21.77;57.75
37291;BME280;23175;-33.706;151.094;2023-03-14T02:25:20;99936.45;;;21.02;59.47
37291;BME280;23175;-33.706;151.094;2023-03-14T02:27:52;99935.10;;;21.37;57.42
37291;BME280;23175;-33.706;151.094;2023-03-14T02:30:25;99934.23;;;19.08;63.43
37291;BME280;23175;-33.706;151.094;2023-03-14T02:32:59;99928.77;;;20.57;60.22
37291;BME280;23175;-33.706;151.094;2023-03-14T02:35:33;99930.70;;;17.81;67.38
37291;BME280;23175;-33.706;151.094;2023-03-14T02:38:10;99927.90;;;20.09;61.25
37291;BME280;23175;-33.706;151.094;2023-03-14T02:40:45;99929.26;;;16.63;70.03
37291;BME280;23175;-33.706;151.094;2023-03-14T02:43:17;99930.95;;;19.98;62.80
37291;BME280;23175;-33.706;151.094;2023-03-14T02:45:48;99932.57;;;13.87;76.73
37291;BME280;23175;-33.706;151.094;2023-03-14T02:48:24;99927.57;;;16.53;72.85
37291;BME280;23175;-33.706;151.094;2023-03-14T02:50:57;99931.37;;;16.80;72.37
37291;BME280;23175;-33.706;151.094;2023-03-14T02:53:29;99926.38;;;19.93;64.02
37291;BME280;23175;-33.706;151.094;2023-03-14T02:56:00;99925.69;;;18.19;67.37
37291;BME280;23175;-33.706;151.094;2023-03-14T02:58:30;99925.20;;;15.96;71.45
37291;BME280;23175;-33.706;151.094;2023-03-14T03:01:00;99928.46;;;14.67;73.49
37291;BME280;23175;-33.706;151.094;2023-03-14T03:03:31;99923.39;;;16.70;69.73
37291;BME280;23175;-33.706;151.094;2023-03-14T03:06:01;99922.94;;;16.51;71.61
37291;BME280;23175;-33.706;151.094;2023-03-14T03:08:32;99913.83;;;20.60;60.79
37291;BME280;23175;-33.706;151.094;2023-03-14T03:11:03;99912.73;;;19.71;62.74
37291;BME280;23175;-33.706;151.094;2023-03-14T03:13:33;99910.58;;;20.10;61.95
37291;BME280;23175;-33.706;151.094;2023-03-14T03:16:04;99903.16;;;21.25;58.86
37291;BME280;23175;-33.706;151.094;2023-03-14T03:18:34;99909.10;;;16.49;69.33
37291;BME280;23175;-33.706;151.094;2023-03-14T03:21:05;99906.40;;;20.38;60.37
37291;BME280;23175;-33.706;151.094;2023-03-14T03:23:35;99905.85;;;20.13;61.21
37291;BME280;23175;-33.706;151.094;2023-03-14T03:26:06;99902.23;;;19.63;62.47
37291;BME280;23175;-33.706;151.094;2023-03-14T03:28:35;99903.05;;;17.29;66.27
37291;BME280;23175;-33.706;151.094;2023-03-14T03:31:09;99901.63;;;16.96;68.77
37291;BME280;23175;-33.706;151.094;2023-03-14T03:33:40;99898.17;;;21.47;58.71
37291;BME280;23175;-33.706;151.094;2023-03-14T03:36:11;99900.76;;;19.66;59.18
37291;BME280;23175;-33.706;151.094;2023-03-14T03:38:40;99898.87;;;20.85;56.77
37291;BME280;23175;-33.706;151.094;2023-03-14T03:41:11;99897.33;;;20.91;57.66
37291;BME280;23175;-33.706;151.094;2023-03-14T03:43:43;99888.09;;;20.50;59.57
37291;BME280;23175;-33.706;151.094;2023-03-14T03:46:13;99883.59;;;18.56;62.09
37291;BME280;23175;-33.706;151.094;2023-03-14T03:48:44;99879.53;;;21.19;56.77
37291;BME280;23175;-33.706;151.094;2023-03-14T03:51:15;99879.52;;;22.84;51.53
37291;BME280;23175;-33.706;151.094;2023-03-14T03:53:45;99878.46;;;19.91;58.19
37291;BME280;23175;-33.706;151.094;2023-03-14T03:56:15;99875.33;;;20.30;58.41
37291;BME280;23175;-33.706;151.094;2023-03-14T03:58:46;99870.32;;;19.21;57.42
37291;BME280;23175;-33.706;151.094;2023-03-14T04:01:16;99868.73;;;18.19;59.47
37291;BME280;23175;-33.706;151.094;2023-03-14T04:03:46;99867.21;;;18.11;61.36
37291;BME280;23175;-33.706;151.094;2023-03-14T04:06:17;99860.66;;;21.80;56.18
37291;BME280;23175;-33.706;151.094;2023-03-14T04:08:47;99859.92;;;22.38;55.69
37291;BME280;23175;-33.706;151.094;2023-03-14T04:11:17;99855.59;;;22.41;52.10
37291;BME280;23175;-33.706;151.094;2023-03-14T04:13:47;99856.79;;;21.12;54.84
37291;BME280;23175;-33.706;151.094;2023-03-14T04:16:20;99852.37;;;20.97;53.42
37291;BME280;23175;-33.706;151.094;2023-03-14T04:18:51;99853.71;;;21.65;52.08
37291;BME280;23175;-33.706;151.094;2023-03-14T04:21:21;99849.29;;;22.76;52.67
37291;BME280;23175;-33.706;151.094;2023-03-14T04:23:52;99846.61;;;21.70;54.07
37291;BME280;23175;-33.706;151.094;2023-03-14T04:26:22;99844.88;;;22.07;54.94
37291;BME280;23175;-33.706;151.094;2023-03-14T04:28:52;99841.66;;;20.54;57.29
37291;BME280;23175;-33.706;151.094;2023-03-14T04:31:23;99837.89;;;19.10;59.61
37291;BME280;23175;-33.706;151.094;2023-03-14T04:33:53;99831.95;;;20.70;55.28
37291;BME280;23175;-33.706;151.094;2023-03-14T04:36:23;99828.24;;;22.58;52.31
37291;BME280;23175;-33.706;151.094;2023-03-14T04:38:53;99828.64;;;22.26;52.41
37291;BME280;23175;-33.706;151.094;2023-03-14T04:41:23;99827.99;;;21.20;54.40
37291;BME280;23175;-33.706;151.094;2023-03-14T04:43:55;99830.75;;;20.50;55.14
37291;BME280;23175;-33.706;151.094;2023-03-14T04:46:25;99835.21;;;20.81;58.65
37291;BME280;23175;-33.706;151.094;2023-03-14T04:48:55;99826.85;;;18.56;57.91
37291;BME280;23175;-33.706;151.094;2023-03-14T04:51:25;99823.16;;;18.58;57.74
37291;BME280;23175;-33.706;151.094;2023-03-14T04:53:55;99821.37;;;20.88;55.38
37291;BME280;23175;-33.706;151.094;2023-03-14T04:56:26;99818.14;;;18.66;62.13
37291;BME280;23175;-33.706;151.094;2023-03-14T04:58:56;99812.57;;;20.62;57.31
37291;BME280;23175;-33.706;151.094;2023-03-14T05:01:26;99813.34;;;19.13;56.54
37291;BME280;23175;-33.706;151.094;2023-03-14T05:03:56;99814.42;;;19.04;55.85
37291;BME280;23175;-33.706;151.094;2023-03-14T05:06:27;99809.50;;;20.31;54.19
37291;BME280;23175;-33.706;151.094;2023-03-14T05:08:57;99812.89;;;19.53;57.66
37291;BME280;23175;-33.706;151.094;2023-03-14T05:11:27;99810.38;;;18.93;59.25
37291;BME280;23175;-33.706;151.094;2023-03-14T05:13:57;99812.27;;;19.09;56.98
37291;BME280;23175;-33.706;151.094;2023-03-14T05:16:29;99809.40;;;20.28;53.39
37291;BME280;23175;-33.706;151.094;2023-03-14T05:18:59;99807.68;;;20.71;53.91
37291;BME280;23175;-33.706;151.094;2023-03-14T05:21:29;99812.26;;;18.50;59.50
37291;BME280;23175;-33.706;151.094;2023-03-14T05:23:59;99809.61;;;20.31;53.79
37291;BME280;23175;-33.706;151.094;2023-03-14T05:26:31;99813.37;;;19.93;54.23
37291;BME280;23175;-33.706;151.094;2023-03-14T05:29:02;99815.63;;;19.58;56.44
37291;BME280;23175;-33.706;151.094;2023-03-14T05:31:32;99818.10;;;19.57;59.06
37291;BME280;23175;-33.706;151.094;2023-03-14T05:34:02;99817.12;;;20.93;55.48
37291;BME280;23175;-33.706;151.094;2023-03-14T05:36:33;99815.20;;;19.88;57.36
37291;BME280;23175;-33.706;151.094;2023-03-14T05:39:03;99813.46;;;21.09;54.36
37291;BME280;23175;-33.706;151.094;2023-03-14T05:41:32;99817.33;;;18.99;58.32
37291;BME280;23175;-33.706;151.094;2023-03-14T05:44:04;99815.39;;;18.83;58.73
37291;BME280;23175;-33.706;151.094;2023-03-14T05:46:34;99815.10;;;18.38;60.42
37291;BME280;23175;-33.706;151.094;2023-03-14T05:49:04;99812.43;;;17.53;62.74
37291;BME280;23175;-33.706;151.094;2023-03-14T05:51:34;99802.49;;;21.73;52.94
37291;BME280;23175;-33.706;151.094;2023-03-14T05:54:04;99807.81;;;19.13;58.54
37291;BME280;23175;-33.706;151.094;2023-03-14T05:56:34;99806.22;;;20.17;55.98
37291;BME280;23175;-33.706;151.094;2023-03-14T05:59:05;99806.51;;;17.40;61.90
37291;BME280;23175;-33.706;151.094;2023-03-14T06:01:35;99800.30;;;19.85;57.71
37291;BME280;23175;-33.706;151.094;2023-03-14T06:04:06;99800.16;;;18.88;58.86
37291;BME280;23175;-33.706;151.094;2023-03-14T06:06:36;99804.90;;;19.57;58.77
37291;BME280;23175;-33.706;151.094;2023-03-14T06:09:06;99799.50;;;20.65;56.31
37291;BME280;23175;-33.706;151.094;2023-03-14T06:11:36;99799.75;;;19.20;58.11
37291;BME280;23175;-33.706;151.094;2023-03-14T06:14:06;99798.06;;;19.39;57.49
37291;BME280;23175;-33.706;151.094;2023-03-14T06:16:37;99801.65;;;19.93;57.00
37291;BME280;23175;-33.706;151.094;2023-03-14T06:19:07;99812.63;;;17.42;61.19
37291;BME280;23175;-33.706;151.094;2023-03-14T06:21:37;99811.46;;;19.34;60.69
37291;BME280;23175;-33.706;151.094;2023-03-14T06:24:08;99815.08;;;20.48;59.10
37291;BME280;23175;-33.706;151.094;2023-03-14T06:26:38;99821.66;;;19.84;61.35
37291;BME280;23175;-33.706;151.094;2023-03-14T06:29:13;99818.56;;;20.94;59.13
37291;BME280;23175;-33.706;151.094;2023-03-14T06:31:44;99816.10;;;20.85;59.29
37291;BME280;23175;-33.706;151.094;2023-03-14T06:34:14;99814.39;;;18.38;63.91
37291;BME280;23175;-33.706;151.094;2023-03-14T06:36:44;99813.93;;;18.42;63.63
37291;BME280;23175;-33.706;151.094;2023-03-14T06:39:15;99812.88;;;19.40;61.84
37291;BME280;23175;-33.706;151.094;2023-03-14T06:41:47;99808.04;;;19.01;62.20
37291;BME280;23175;-33.706;151.094;2023-03-14T06:44:18;99803.37;;;18.75;62.49
37291;BME280;23175;-33.706;151.094;2023-03-14T06:46:48;99801.87;;;18.51;64.22
37291;BME280;23175;-33.706;151.094;2023-03-14T06:49:19;99798.20;;;20.60;59.12
37291;BME280;23175;-33.706;151.094;2023-03-14T06:51:48;99797.89;;;20.20;61.91
37291;BME280;23175;-33.706;151.094;2023-03-14T06:54:19;99799.97;;;21.64;57.47
37291;BME280;23175;-33.706;151.094;2023-03-14T06:56:49;99801.44;;;21.59;57.02
37291;BME280;23175;-33.706;151.094;2023-03-14T06:59:19;99800.52;;;21.90;55.60
37291;BME280;23175;-33.706;151.094;2023-03-14T07:01:50;99799.75;;;22.09;54.53
37291;BME280;23175;-33.706;151.094;2023-03-14T07:04:20;99790.90;;;20.06;59.36
37291;BME280;23175;-33.706;151.094;2023-03-14T07:06:50;99790.95;;;20.82;57.75
37291;BME280;23175;-33.706;151.094;2023-03-14T07:09:21;99790.61;;;21.25;57.14
37291;BME280;23175;-33.706;151.094;2023-03-14T07:11:51;99792.59;;;21.41;57.28
37291;BME280;23175;-33.706;151.094;2023-03-14T07:14:21;99796.35;;;20.07;59.96
37291;BME280;23175;-33.706;151.094;2023-03-14T07:16:53;99797.77;;;21.30;57.27
37291;BME280;23175;-33.706;151.094;2023-03-14T07:19:23;99793.05;;;22.04;56.56
37291;BME280;23175;-33.706;151.094;2023-03-14T07:21:54;99793.07;;;21.61;56.44
37291;BME280;23175;-33.706;151.094;2023-03-14T07:24:23;99791.81;;;22.21;55.31
37291;BME280;23175;-33.706;151.094;2023-03-14T07:26:54;99789.57;;;23.58;52.72
37291;BME280;23175;-33.706;151.094;2023-03-14T07:29:24;99793.31;;;20.72;56.99
37291;BME280;23175;-33.706;151.094;2023-03-14T07:31:53;99792.45;;;22.26;53.54
37291;BME280;23175;-33.706;151.094;2023-03-14T07:34:23;99796.12;;;22.68;53.59
37291;BME280;23175;-33.706;151.094;2023-03-14T07:36:53;99795.26;;;20.57;57.49
37291;BME280;23175;-33.706;151.094;2023-03-14T07:39:24;99796.30;;;20.73;55.71
37291;BME280;23175;-33.706;151.094;2023-03-14T07:41:54;99794.81;;;21.37;54.80
37291;BME280;23175;-33.706;151.094;2023-03-14T07:44:25;99802.87;;;22.67;52.45
37291;BME280;23175;-33.706;151.094;2023-03-14T07:46:54;99802.66;;;22.80;52.52
37291;BME280;23175;-33.706;151.094;2023-03-14T07:49:25;99805.87;;;22.56;52.89
37291;BME280;23175;-33.706;151.094;2023-03-14T07:52:01;99807.38;;;23.02;51.93
37291;BME280;23175;-33.706;151.094;2023-03-14T07:54:31;99806.35;;;20.43;57.21
37291;BME280;23175;-33.706;151.094;2023-03-14T07:57:01;99801.39;;;20.40;57.73
37291;BME280;23175;-33.706;151.094;2023-03-14T07:59:32;99802.62;;;22.21;53.59
37291;BME280;23175;-33.706;151.094;2023-03-14T08:02:04;99805.57;;;19.50;57.30
37291;BME280;23175;-33.706;151.094;2023-03-14T08:04:35;99807.84;;;20.46;56.07
37291;BME280;23175;-33.706;151.094;2023-03-14T08:07:10;99812.81;;;21.41;54.79
37291;BME280;23175;-33.706;151.094;2023-03-14T08:09:40;99812.61;;;20.99;56.20
37291;BME280;23175;-33.706;151.094;2023-03-14T08:12:10;99815.15;;;22.72;52.78
37291;BME280;23175;-33.706;151.094;2023-03-14T08:14:40;99820.07;;;22.98;52.09
37291;BME280;23175;-33.706;151.094;2023-03-14T08:17:11;99823.12;;;22.88;51.75
37291;BME280;23175;-33.706;151.094;2023-03-14T08:19:42;99825.59;;;23.05;51.53
37291;BME280;23175;-33.706;151.094;2023-03-14T08:22:12;99827.90;;;22.90;51.54
37291;BME280;23175;-33.706;151.094;2023-03-14T08:24:42;99834.98;;;23.17;51.04
37291;BME280;23175;-33.706;151.094;2023-03-14T08:27:12;99833.48;;;22.99;51.13
37291;BME280;23175;-33.706;151.094;2023-03-14T08:29:43;99835.83;;;22.90;51.31
37291;BME280;23175;-33.706;151.094;2023-03-14T08:32:13;99837.81;;;23.09;50.66
37291;BME280;23175;-33.706;151.094;2023-03-14T08:34:43;99833.04;;;20.73;55.02
37291;BME280;23175;-33.706;151.094;2023-03-14T08:37:13;99837.39;;;22.59;51.88
37291;BME280;23175;-33.706;151.094;2023-03-14T08:39:44;99836.45;;;22.74;51.76
37291;BME280;23175;-33.706;151.094;2023-03-14T08:42:14;99834.76;;;22.25;51.78
37291;BME280;23175;-33.706;151.094;2023-03-14T08:44:44;99834.18;;;23.26;51.62
37291;BME280;23175;-33.706;151.094;2023-03-14T08:47:14;99835.63;;;22.86;51.14
37291;BME280;23175;-33.706;151.094;2023-03-14T08:49:45;99835.10;;;22.69;51.28
37291;BME280;23175;-33.706;151.094;2023-03-14T08:52:15;99833.49;;;22.26;52.03
37291;BME280;23175;-33.706;151.094;2023-03-14T08:54:46;99840.61;;;22.72;51.19
37291;BME280;23175;-33.706;151.094;2023-03-14T08:57:16;99840.82;;;22.68;50.99
37291;BME280;23175;-33.706;151.094;2023-03-14T08:59:46;99843.61;;;22.65;51.00
37291;BME280;23175;-33.706;151.094;2023-03-14T09:02:16;99845.00;;;22.54;51.31
37291;BME280;23175;-33.706;151.094;2023-03-14T09:04:47;99847.40;;;23.05;50.95
37291;BME280;23175;-33.706;151.094;2023-03-14T09:07:17;99847.74;;;23.18;50.96
37291;BME280;23175;-33.706;151.094;2023-03-14T09:09:47;99844.49;;;22.87;50.93
37291;BME280;23175;-33.706;151.094;2023-03-14T09:12:18;99840.37;;;22.74;50.89
37291;BME280;23175;-33.706;151.094;2023-03-14T09:14:47;99840.57;;;22.76;51.44
37291;BME280;23175;-33.706;151.094;2023-03-14T09:17:17;99842.49;;;22.73;50.82
37291;BME280;23175;-33.706;151.094;2023-03-14T09:19:48;99841.53;;;22.70;51.56
37291;BME280;23175;-33.706;151.094;2023-03-14T09:22:21;99848.59;;;22.78;50.76
37291;BME280;23175;-33.706;151.094;2023-03-14T09:24:51;99851.50;;;22.60;51.29
37291;BME280;23175;-33.706;151.094;2023-03-14T09:27:21;99859.39;;;21.23;53.93
37291;BME280;23175;-33.706;151.094;2023-03-14T09:29:51;99861.88;;;22.27;52.13
37291;BME280;23175;-33.706;151.094;2023-03-14T09:32:22;99865.15;;;22.63;51.41
37291;BME280;23175;-33.706;151.094;2023-03-14T09:34:52;99866.92;;;22.61;51.54
37291;BME280;23175;-33.706;151.094;2023-03-14T09:37:22;99865.67;;;22.90;51.00
37291;BME280;23175;-33.706;151.094;2023-03-14T09:39:53;99865.77;;;22.89;51.00
37291;BME280;23175;-33.706;151.094;2023-03-14T09:42:26;99864.54;;;22.84;51.22
37291;BME280;23175;-33.706;151.094;2023-03-14T09:44:59;99862.00;;;22.93;51.11
37291;BME280;23175;-33.706;151.094;2023-03-14T09:47:30;99864.45;;;22.84;51.14
37291;BME280;23175;-33.706;151.094;2023-03-14T09:50:01;99865.75;;;22.92;51.08
37291;BME280;23175;-33.706;151.094;2023-03-14T09:52:33;99866.80;;;23.05;50.90
37291;BME280;23175;-33.706;151.094;2023-03-14T09:55:10;99862.11;;;22.95;50.88
37291;BME280;23175;-33.706;151.094;2023-03-14T09:57:42;99864.43;;;22.87;51.07
37291;BME280;23175;-33.706;151.094;2023-03-14T10:00:18;99867.03;;;23.05;50.86
37291;BME280;23175;-33.706;151.094;2023-03-14T10:02:53;99864.34;;;22.98;50.97
37291;BME280;23175;-33.706;151.094;2023-03-14T10:05:25;99869.10;;;23.01;50.82
37291;BME280;23175;-33.706;151.094;2023-03-14T10:07:55;99874.49;;;22.96;50.87
37291;BME280;23175;-33.706;151.094;2023-03-14T10:10:26;99875.90;;;23.24;51.10
37291;BME280;23175;-33.706;151.094;2023-03-14T10:13:12;99877.58;;;23.03;51.07
37291;BME280;23175;-33.706;151.094;2023-03-14T10:15:50;99879.08;;;23.09;50.91
37291;BME280;23175;-33.706;151.094;2023-03-14T10:18:27;99875.32;;;23.42;50.87
37291;BME280;23175;-33.706;151.094;2023-03-14T10:21:07;99875.13;;;23.07;50.80
37291;BME280;23175;-33.706;151.094;2023-03-14T10:23:46;99873.35;;;22.68;50.83
37291;BME280;23175;-33.706;151.094;2023-03-14T10:26:19;99874.65;;;22.89;51.19
37291;BME280;23175;-33.706;151.094;2023-03-14T10:29:00;99873.29;;;22.99;50.87
37291;BME280;23175;-33.706;151.094;2023-03-14T10:31:47;99872.14;;;22.95;50.84
37291;BME280;23175;-33.706;151.094;2023-03-14T10:34:24;99871.14;;;22.86;51.06
37291;BME280;23175;-33.706;151.094;2023-03-14T10:37:04;99872.24;;;22.38;51.83
37291;BME280;23175;-33.706;151.094;2023-03-14T10:39:47;99876.27;;;22.69;51.46
37291;BME280;23175;-33.706;151.094;2023-03-14T10:42:21;99878.97;;;20.52;55.55
37291;BME280;23175;-33.706;151.094;2023-03-14T10:44:57;99876.60;;;22.36;52.31
37291;BME280;23175;-33.706;151.094;2023-03-14T10:47:30;99877.89;;;22.71;51.45
37291;BME280;23175;-33.706;151.094;2023-03-14T10:50:24;99878.72;;;22.58;51.67
37291;BME280;23175;-33.706;151.094;2023-03-14T10:53:03;99881.35;;;22.64;51.66
37291;BME280;23175;-33.706;151.094;2023-03-14T10:55:42;99883.35;;;22.51;51.69
37291;BME280;23175;-33.706;151.094;2023-03-14T10:58:22;99883.67;;;22.59;50.98
37291;BME280;23175;-33.706;151.094;2023-03-14T11:01:02;99882.50;;;22.86;51.12
37291;BME280;23175;-33.706;151.094;2023-03-14T11:03:37;99880.63;;;22.89;51.04
37291;BME280;23175;-33.706;151.094;2023-03-14T11:06:14;99879.05;;;22.58;51.09
37291;BME280;23175;-33.706;151.094;2023-03-14T11:08:51;99879.60;;;22.90;50.88
37291;BME280;23175;-33.706;151.094;2023-03-14T11:11:26;99880.07;;;22.88;50.90
37291;BME280;23175;-33.706;151.094;2023-03-14T11:14:07;99881.32;;;22.96;50.55
37291;BME280;23175;-33.706;151.094;2023-03-14T11:16:50;99877.45;;;22.78;50.87
37291;BME280;23175;-33.706;151.094;2023-03-14T11:20:38;99876.28;;;22.75;51.00
37291;BME280;23175;-33.706;151.094;2023-03-14T11:23:21;99874.89;;;22.88;50.72
37291;BME280;23175;-33.706;151.094;2023-03-14T11:25:59;99872.67;;;22.83;50.88
37291;BME280;23175;-33.706;151.094;2023-03-14T11:28:37;99867.18;;;22.58;50.61
37291;BME280;23175;-33.706;151.094;2023-03-14T11:31:13;99863.57;;;22.85;51.72
37291;BME280;23175;-33.706;151.094;2023-03-14T11:33:53;99858.78;;;22.54;51.27
37291;BME280;23175;-33.706;151.094;2023-03-14T11:36:29;99855.72;;;23.00;50.91
37291;BME280;23175;-33.706;151.094;2023-03-14T11:39:01;99852.14;;;22.69;50.83
37291;BME280;23175;-33.706;151.094;2023-03-14T11:41:35;99846.80;;;22.71;50.80
37291;BME280;23175;-33.706;151.094;2023-03-14T11:44:19;99842.33;;;22.69;50.93
37291;BME280;23175;-33.706;151.094;2023-03-14T11:46:53;99837.19;;;22.71;50.40
37291;BME280;23175;-33.706;151.094;2023-03-14T11:49:31;99830.54;;;22.88;50.67
37291;BME280;23175;-33.706;151.094;2023-03-14T11:52:09;99826.15;;;22.92;50.61
37291;BME280;23175;-33.706;151.094;2023-03-14T11:54:46;99822.24;;;22.90;50.66
37291;BME280;23175;-33.706;151.094;2023-03-14T11:57:19;99815.50;;;23.22;50.48
37291;BME280;23175;-33.706;151.094;2023-03-14T11:59:58;99812.04;;;22.25;50.55
37291;BME280;23175;-33.706;151.094;2023-03-14T12:02:38;99811.07;;;22.78;50.78
37291;BME280;23175;-33.706;151.094;2023-03-14T12:05:42;99809.00;;;22.78;50.74
37291;BME280;23175;-33.706;151.094;2023-03-14T12:08:39;99804.12;;;22.69;50.89
37291;BME280;23175;-33.706;151.094;2023-03-14T12:11:15;99798.78;;;22.77;50.69
37291;BME280;23175;-33.706;151.094;2023-03-14T12:13:50;99794.40;;;22.78;50.59
37291;BME280;23175;-33.706;151.094;2023-03-14T12:16:34;99788.70;;;22.44;51.26
37291;BME280;23175;-33.706;151.094;2023-03-14T12:19:39;99788.00;;;22.72;50.74
37291;BME280;23175;-33.706;151.094;2023-03-14T12:22:33;99791.17;;;22.90;50.36
37291;BME280;23175;-33.706;151.094;2023-03-14T12:25:13;99791.05;;;22.52;50.72
37291;BME280;23175;-33.706;151.094;2023-03-14T12:27:49;99789.99;;;22.56;50.65
37291;BME280;23175;-33.706;151.094;2023-03-14T12:30:35;99792.57;;;22.85;50.55
37291;BME280;23175;-33.706;151.094;2023-03-14T12:33:29;99796.27;;;22.39;50.71
37291;BME280;23175;-33.706;151.094;2023-03-14T12:36:02;99797.07;;;21.97;50.80
37291;BME280;23175;-33.706;151.094;2023-03-14T12:38:46;99793.36;;;22.08;51.12
37291;BME280;23175;-33.706;151.094;2023-03-14T12:41:26;99789.88;;;22.83;51.07
37291;BME280;23175;-33.706;151.094;2023-03-14T12:44:03;99787.46;;;22.25;51.32
37291;BME280;23175;-33.706;151.094;2023-03-14T12:48:17;99781.86;;;22.50;50.85
37291;BME280;23175;-33.706;151.094;2023-03-14T12:51:00;99776.60;;;21.90;51.41
37291;BME280;23175;-33.706;151.094;2023-03-14T12:54:25;99774.73;;;21.87;51.35
37291;BME280;23175;-33.706;151.094;2023-03-14T12:57:11;99768.57;;;22.23;51.17
37291;BME280;23175;-33.706;151.094;2023-03-14T12:59:51;99764.95;;;22.22;51.31